sensor_id;sensor_type;location;lat;lon;timestamp;P1;durP1;ratioP1;P2;durP2;ratioP2
49241;SDS011;35079;52.704;13.814;2023-11-19T00:00:49;11.45;;;7.25;;
49241;SDS011;35079;52.704;13.814;2023-11-19T00:03:16;8.75;;;7.22;;
49241;SDS011;35079;52.704;13.814;2023-11-19T00:05:42;10.63;;;7.20;;
49241;SDS011;35079;52.704;13.814;2023-11-19T00:08:09;17.67;;;7.25;;
49241;SDS011;35079;52.704;13.814;2023-11-19T00:10:35;9.13;;;6.82;;
49241;SDS011;35079;52.704;13.814;2023-11-19T00:13:00;8.45;;;6.43;;
49241;SDS011;35079;52.704;13.814;2023-11-19T00:15:28;11.68;;;7.63;;
49241;SDS011;35079;52.704;13.814;2023-11-19T00:17:53;9.57;;;6.85;;
49241;SDS011;35079;52.704;13.814;2023-11-19T00:20:19;12.52;;;7.07;;
49241;SDS011;35079;52.704;13.814;2023-11-19T00:22:47;14.55;;;7.18;;
49241;SDS011;35079;52.704;13.814;2023-11-19T00:28:13;8.23;;;6.32;;
49241;SDS011;35079;52.704;13.814;2023-11-19T00:30:39;9.52;;;6.95;;
49241;SDS011;35079;52.704;13.814;2023-11-19T00:33:06;13.20;;;7.28;;
49241;SDS011;35079;52.704;13.814;2023-11-19T00:35:32;12.52;;;7.45;;
49241;SDS011;35079;52.704;13.814;2023-11-19T00:37:58;10.40;;;7.68;;
49241;SDS011;35079;52.704;13.814;2023-11-19T00:40:23;11.70;;;7.15;;
49241;SDS011;35079;52.704;13.814;2023-11-19T00:42:49;9.77;;;7.13;;
49241;SDS011;35079;52.704;13.814;2023-11-19T00:45:15;11.65;;;7.50;;
49241;SDS011;35079;52.704;13.814;2023-11-19T00:47:41;11.95;;;7.55;;
49241;SDS011;35079;52.704;13.814;2023-11-19T00:50:07;10.13;;;7.72;;
49241;SDS011;35079;52.704;13.814;2023-11-19T00:52:36;10.18;;;6.90;;
49241;SDS011;35079;52.704;13.814;2023-11-19T00:55:02;14.50;;;7.60;;
49241;SDS011;35079;52.704;13.814;2023-11-19T00:57:29;11.93;;;7.65;;
49241;SDS011;35079;52.704;13.814;2023-11-19T00:59:57;11.20;;;7.75;;
49241;SDS011;35079;52.704;13.814;2023-11-19T01:02:23;11.95;;;7.90;;
49241;SDS011;35079;52.704;13.814;2023-11-19T01:04:49;10.60;;;7.30;;
49241;SDS011;35079;52.704;13.814;2023-11-19T01:07:15;10.70;;;7.53;;
49241;SDS011;35079;52.704;13.814;2023-11-19T01:09:41;10.10;;;7.05;;
49241;SDS011;35079;52.704;13.814;2023-11-19T01:12:07;9.43;;;6.72;;
49241;SDS011;35079;52.704;13.814;2023-11-19T01:14:34;10.38;;;7.32;;
49241;SDS011;35079;52.704;13.814;2023-11-19T01:16:59;11.13;;;7.60;;
49241;SDS011;35079;52.704;13.814;2023-11-19T01:19:26;10.45;;;6.80;;
49241;SDS011;35079;52.704;13.814;2023-11-19T01:21:53;11.77;;;7.80;;
49241;SDS011;35079;52.704;13.814;2023-11-19T01:24:19;10.88;;;7.40;;
49241;SDS011;35079;52.704;13.814;2023-11-19T01:26:45;9.35;;;7.10;;
49241;SDS011;35079;52.704;13.814;2023-11-19T01:29:12;9.23;;;7.05;;
49241;SDS011;35079;52.704;13.814;2023-11-19T01:31:42;9.88;;;6.68;;
49241;SDS011;35079;52.704;13.814;2023-11-19T01:34:08;9.38;;;7.43;;
49241;SDS011;35079;52.704;13.814;2023-11-19T01:36:34;10.20;;;7.43;;
49241;SDS011;35079;52.704;13.814;2023-11-19T01:39:00;14.30;;;8.80;;
49241;SDS011;35079;52.704;13.814;2023-11-19T01:41:26;11.70;;;8.30;;
49241;SDS011;35079;52.704;13.814;2023-11-19T01:43:51;11.63;;;8.02;;
49241;SDS011;35079;52.704;13.814;2023-11-19T01:46:17;10.68;;;7.72;;
49241;SDS011;35079;52.704;13.814;2023-11-19T01:48:44;12.82;;;8.55;;
49241;SDS011;35079;52.704;13.814;2023-11-19T01:51:10;12.98;;;8.00;;
49241;SDS011;35079;52.704;13.814;2023-11-19T01:53:41;10.45;;;7.78;;
49241;SDS011;35079;52.704;13.814;2023-11-19T01:56:08;12.18;;;7.78;;
49241;SDS011;35079;52.704;13.814;2023-11-19T01:58:36;12.27;;;8.25;;
49241;SDS011;35079;52.704;13.814;2023-11-19T02:01:04;12.70;;;7.85;;
49241;SDS011;35079;52.704;13.814;2023-11-19T02:03:33;12.23;;;7.93;;
49241;SDS011;35079;52.704;13.814;2023-11-19T02:05:59;11.15;;;8.07;;
49241;SDS011;35079;52.704;13.814;2023-11-19T02:08:25;10.75;;;7.28;;
49241;SDS011;35079;52.704;13.814;2023-11-19T02:10:51;14.93;;;7.45;;
49241;SDS011;35079;52.704;13.814;2023-11-19T02:13:17;11.10;;;7.50;;
49241;SDS011;35079;52.704;13.814;2023-11-19T02:15:43;13.73;;;8.25;;
49241;SDS011;35079;52.704;13.814;2023-11-19T02:20:47;11.25;;;8.35;;
49241;SDS011;35079;52.704;13.814;2023-11-19T02:23:16;11.63;;;7.82;;
49241;SDS011;35079;52.704;13.814;2023-11-19T02:25:43;13.77;;;7.78;;
49241;SDS011;35079;52.704;13.814;2023-11-19T02:28:17;13.55;;;7.90;;
49241;SDS011;35079;52.704;13.814;2023-11-19T02:30:43;10.30;;;7.20;;
49241;SDS011;35079;52.704;13.814;2023-11-19T02:33:08;20.95;;;8.07;;
49241;SDS011;35079;52.704;13.814;2023-11-19T02:35:34;10.77;;;7.00;;
49241;SDS011;35079;52.704;13.814;2023-11-19T02:38:00;11.38;;;7.20;;
49241;SDS011;35079;52.704;13.814;2023-11-19T02:40:26;11.07;;;7.28;;
49241;SDS011;35079;52.704;13.814;2023-11-19T02:42:52;10.00;;;7.32;;
49241;SDS011;35079;52.704;13.814;2023-11-19T02:45:19;10.68;;;7.38;;
49241;SDS011;35079;52.704;13.814;2023-11-19T02:47:45;10.25;;;7.47;;
49241;SDS011;35079;52.704;13.814;2023-11-19T02:50:10;11.88;;;7.80;;
49241;SDS011;35079;52.704;13.814;2023-11-19T02:52:43;10.00;;;6.80;;
49241;SDS011;35079;52.704;13.814;2023-11-19T02:55:10;10.55;;;6.93;;
49241;SDS011;35079;52.704;13.814;2023-11-19T02:57:40;15.85;;;7.53;;
49241;SDS011;35079;52.704;13.814;2023-11-19T03:00:21;10.35;;;7.18;;
49241;SDS011;35079;52.704;13.814;2023-11-19T03:02:59;13.38;;;8.75;;
49241;SDS011;35079;52.704;13.814;2023-11-19T03:05:25;10.60;;;7.93;;
49241;SDS011;35079;52.704;13.814;2023-11-19T03:07:52;10.02;;;7.72;;
49241;SDS011;35079;52.704;13.814;2023-11-19T03:10:17;13.23;;;8.45;;
49241;SDS011;35079;52.704;13.814;2023-11-19T03:12:44;12.02;;;9.10;;
49241;SDS011;35079;52.704;13.814;2023-11-19T03:15:10;11.77;;;8.60;;
49241;SDS011;35079;52.704;13.814;2023-11-19T03:17:38;10.52;;;8.02;;
49241;SDS011;35079;52.704;13.814;2023-11-19T03:20:07;13.57;;;8.18;;
49241;SDS011;35079;52.704;13.814;2023-11-19T03:22:34;13.40;;;8.52;;
49241;SDS011;35079;52.704;13.814;2023-11-19T03:25:01;11.75;;;7.68;;
49241;SDS011;35079;52.704;13.814;2023-11-19T03:27:27;13.77;;;8.63;;
49241;SDS011;35079;52.704;13.814;2023-11-19T03:29:53;12.27;;;8.48;;
49241;SDS011;35079;52.704;13.814;2023-11-19T03:32:18;11.63;;;7.60;;
49241;SDS011;35079;52.704;13.814;2023-11-19T03:34:44;10.40;;;7.15;;
49241;SDS011;35079;52.704;13.814;2023-11-19T03:37:10;12.38;;;7.97;;
49241;SDS011;35079;52.704;13.814;2023-11-19T03:39:36;11.80;;;7.47;;
49241;SDS011;35079;52.704;13.814;2023-11-19T03:42:02;12.23;;;7.75;;
49241;SDS011;35079;52.704;13.814;2023-11-19T03:44:28;12.05;;;8.45;;
49241;SDS011;35079;52.704;13.814;2023-11-19T03:46:54;12.00;;;7.38;;
49241;SDS011;35079;52.704;13.814;2023-11-19T03:49:19;13.73;;;7.47;;
49241;SDS011;35079;52.704;13.814;2023-11-19T03:51:45;12.73;;;8.10;;
49241;SDS011;35079;52.704;13.814;2023-11-19T03:54:11;13.10;;;7.45;;
49241;SDS011;35079;52.704;13.814;2023-11-19T03:56:36;9.93;;;7.05;;
49241;SDS011;35079;52.704;13.814;2023-11-19T03:59:02;10.00;;;7.38;;
49241;SDS011;35079;52.704;13.814;2023-11-19T04:01:28;12.60;;;7.95;;
49241;SDS011;35079;52.704;13.814;2023-11-19T04:03:53;11.20;;;7.57;;
49241;SDS011;35079;52.704;13.814;2023-11-19T04:06:21;11.30;;;7.13;;
49241;SDS011;35079;52.704;13.814;2023-11-19T04:08:46;10.50;;;6.95;;
49241;SDS011;35079;52.704;13.814;2023-11-19T04:11:12;10.02;;;7.10;;
49241;SDS011;35079;52.704;13.814;2023-11-19T04:13:38;11.65;;;7.80;;
49241;SDS011;35079;52.704;13.814;2023-11-19T04:16:03;12.48;;;7.57;;
49241;SDS011;35079;52.704;13.814;2023-11-19T04:18:29;13.98;;;7.72;;
49241;SDS011;35079;52.704;13.814;2023-11-19T04:20:56;11.48;;;7.93;;
49241;SDS011;35079;52.704;13.814;2023-11-19T04:23:22;10.45;;;7.07;;
49241;SDS011;35079;52.704;13.814;2023-11-19T04:25:50;11.38;;;7.95;;
49241;SDS011;35079;52.704;13.814;2023-11-19T04:28:15;14.68;;;7.78;;
49241;SDS011;35079;52.704;13.814;2023-11-19T04:30:41;12.90;;;7.38;;
49241;SDS011;35079;52.704;13.814;2023-11-19T04:33:07;11.68;;;7.97;;
49241;SDS011;35079;52.704;13.814;2023-11-19T04:35:32;13.23;;;8.13;;
49241;SDS011;35079;52.704;13.814;2023-11-19T04:37:58;12.35;;;7.82;;
49241;SDS011;35079;52.704;13.814;2023-11-19T04:40:24;11.85;;;7.78;;
49241;SDS011;35079;52.704;13.814;2023-11-19T04:42:49;12.90;;;8.23;;
49241;SDS011;35079;52.704;13.814;2023-11-19T04:45:15;11.10;;;7.90;;
49241;SDS011;35079;52.704;13.814;2023-11-19T04:47:41;10.98;;;7.60;;
49241;SDS011;35079;52.704;13.814;2023-11-19T04:50:07;12.65;;;7.20;;
49241;SDS011;35079;52.704;13.814;2023-11-19T04:52:37;10.82;;;8.05;;
49241;SDS011;35079;52.704;13.814;2023-11-19T04:55:05;12.85;;;8.05;;
49241;SDS011;35079;52.704;13.814;2023-11-19T04:57:31;14.82;;;8.35;;
49241;SDS011;35079;52.704;13.814;2023-11-19T04:59:57;13.13;;;8.20;;
49241;SDS011;35079;52.704;13.814;2023-11-19T05:02:23;11.88;;;8.23;;
49241;SDS011;35079;52.704;13.814;2023-11-19T05:04:49;13.02;;;8.30;;
49241;SDS011;35079;52.704;13.814;2023-11-19T05:07:14;12.82;;;8.05;;
49241;SDS011;35079;52.704;13.814;2023-11-19T05:09:40;10.95;;;7.93;;
49241;SDS011;35079;52.704;13.814;2023-11-19T05:12:06;12.85;;;8.32;;
49241;SDS011;35079;52.704;13.814;2023-11-19T05:14:35;11.50;;;8.02;;
49241;SDS011;35079;52.704;13.814;2023-11-19T05:17:00;12.82;;;8.35;;
49241;SDS011;35079;52.704;13.814;2023-11-19T05:19:26;14.43;;;8.50;;
49241;SDS011;35079;52.704;13.814;2023-11-19T05:21:51;14.63;;;8.95;;
49241;SDS011;35079;52.704;13.814;2023-11-19T05:24:17;14.95;;;10.13;;
49241;SDS011;35079;52.704;13.814;2023-11-19T05:26:43;17.65;;;9.52;;
49241;SDS011;35079;52.704;13.814;2023-11-19T05:29:08;14.98;;;9.88;;
49241;SDS011;35079;52.704;13.814;2023-11-19T05:31:34;18.50;;;9.55;;
49241;SDS011;35079;52.704;13.814;2023-11-19T05:33:59;15.82;;;9.80;;
49241;SDS011;35079;52.704;13.814;2023-11-19T05:36:25;14.15;;;9.38;;
49241;SDS011;35079;52.704;13.814;2023-11-19T05:38:50;13.90;;;8.82;;
49241;SDS011;35079;52.704;13.814;2023-11-19T05:41:16;15.70;;;9.45;;
49241;SDS011;35079;52.704;13.814;2023-11-19T05:43:42;11.65;;;8.50;;
49241;SDS011;35079;52.704;13.814;2023-11-19T05:46:07;11.93;;;8.65;;
49241;SDS011;35079;52.704;13.814;2023-11-19T05:48:33;16.10;;;9.07;;
49241;SDS011;35079;52.704;13.814;2023-11-19T05:50:59;13.15;;;8.73;;
49241;SDS011;35079;52.704;13.814;2023-11-19T05:53:25;12.80;;;8.38;;
49241;SDS011;35079;52.704;13.814;2023-11-19T05:55:51;14.25;;;8.57;;
49241;SDS011;35079;52.704;13.814;2023-11-19T05:58:27;14.35;;;8.45;;
49241;SDS011;35079;52.704;13.814;2023-11-19T06:00:56;15.05;;;8.98;;
49241;SDS011;35079;52.704;13.814;2023-11-19T06:03:21;12.50;;;7.65;;
49241;SDS011;35079;52.704;13.814;2023-11-19T06:05:47;12.63;;;8.20;;
49241;SDS011;35079;52.704;13.814;2023-11-19T06:08:14;12.23;;;8.43;;
49241;SDS011;35079;52.704;13.814;2023-11-19T06:10:43;12.30;;;8.05;;
49241;SDS011;35079;52.704;13.814;2023-11-19T06:13:11;10.68;;;7.50;;
49241;SDS011;35079;52.704;13.814;2023-11-19T06:15:37;9.98;;;7.32;;
49241;SDS011;35079;52.704;13.814;2023-11-19T06:18:03;9.98;;;7.95;;
49241;SDS011;35079;52.704;13.814;2023-11-19T06:20:29;12.60;;;7.25;;
49241;SDS011;35079;52.704;13.814;2023-11-19T06:22:56;10.00;;;7.15;;
49241;SDS011;35079;52.704;13.814;2023-11-19T06:25:22;10.60;;;7.18;;
49241;SDS011;35079;52.704;13.814;2023-11-19T06:27:49;12.85;;;6.85;;
49241;SDS011;35079;52.704;13.814;2023-11-19T06:30:15;11.98;;;7.40;;
49241;SDS011;35079;52.704;13.814;2023-11-19T06:32:41;10.80;;;6.55;;
49241;SDS011;35079;52.704;13.814;2023-11-19T06:35:07;11.30;;;5.70;;
49241;SDS011;35079;52.704;13.814;2023-11-19T06:37:33;9.23;;;6.15;;
49241;SDS011;35079;52.704;13.814;2023-11-19T06:39:59;8.57;;;6.00;;
49241;SDS011;35079;52.704;13.814;2023-11-19T06:42:24;9.02;;;5.40;;
49241;SDS011;35079;52.704;13.814;2023-11-19T06:44:50;7.88;;;5.53;;
49241;SDS011;35079;52.704;13.814;2023-11-19T06:47:16;9.77;;;5.78;;
49241;SDS011;35079;52.704;13.814;2023-11-19T06:49:45;7.85;;;5.60;;
49241;SDS011;35079;52.704;13.814;2023-11-19T06:52:11;8.15;;;5.32;;
49241;SDS011;35079;52.704;13.814;2023-11-19T06:54:38;7.18;;;5.15;;
49241;SDS011;35079;52.704;13.814;2023-11-19T06:57:04;7.32;;;5.57;;
49241;SDS011;35079;52.704;13.814;2023-11-19T06:59:30;5.93;;;4.63;;
49241;SDS011;35079;52.704;13.814;2023-11-19T07:01:55;6.45;;;4.85;;
49241;SDS011;35079;52.704;13.814;2023-11-19T07:04:21;8.68;;;5.30;;
49241;SDS011;35079;52.704;13.814;2023-11-19T07:06:47;6.97;;;4.93;;
49241;SDS011;35079;52.704;13.814;2023-11-19T07:09:13;6.63;;;4.45;;
49241;SDS011;35079;52.704;13.814;2023-11-19T07:11:39;7.03;;;4.93;;
49241;SDS011;35079;52.704;13.814;2023-11-19T07:14:05;7.40;;;4.70;;
49241;SDS011;35079;52.704;13.814;2023-11-19T07:16:35;8.98;;;5.18;;
49241;SDS011;35079;52.704;13.814;2023-11-19T07:19:11;7.97;;;4.75;;
49241;SDS011;35079;52.704;13.814;2023-11-19T07:21:37;6.60;;;4.35;;
49241;SDS011;35079;52.704;13.814;2023-11-19T07:24:09;5.72;;;4.38;;
49241;SDS011;35079;52.704;13.814;2023-11-19T07:26:35;5.22;;;4.40;;
49241;SDS011;35079;52.704;13.814;2023-11-19T07:29:02;5.85;;;3.80;;
49241;SDS011;35079;52.704;13.814;2023-11-19T07:31:28;7.00;;;4.30;;
49241;SDS011;35079;52.704;13.814;2023-11-19T07:33:53;5.93;;;4.40;;
49241;SDS011;35079;52.704;13.814;2023-11-19T07:36:19;6.68;;;4.55;;
49241;SDS011;35079;52.704;13.814;2023-11-19T07:38:45;4.75;;;3.95;;
49241;SDS011;35079;52.704;13.814;2023-11-19T07:41:12;5.57;;;4.13;;
49241;SDS011;35079;52.704;13.814;2023-11-19T07:43:44;6.72;;;4.30;;
49241;SDS011;35079;52.704;13.814;2023-11-19T07:46:11;5.10;;;3.50;;
49241;SDS011;35079;52.704;13.814;2023-11-19T07:48:38;4.68;;;3.75;;
49241;SDS011;35079;52.704;13.814;2023-11-19T07:51:04;5.20;;;3.63;;
49241;SDS011;35079;52.704;13.814;2023-11-19T07:53:29;4.30;;;3.25;;
49241;SDS011;35079;52.704;13.814;2023-11-19T07:55:55;4.55;;;3.30;;
49241;SDS011;35079;52.704;13.814;2023-11-19T07:58:21;3.63;;;3.30;;
49241;SDS011;35079;52.704;13.814;2023-11-19T08:00:46;5.03;;;2.90;;
49241;SDS011;35079;52.704;13.814;2023-11-19T08:03:12;4.07;;;2.90;;
49241;SDS011;35079;52.704;13.814;2023-11-19T08:05:37;3.63;;;2.60;;
49241;SDS011;35079;52.704;13.814;2023-11-19T08:08:04;3.28;;;2.67;;
49241;SDS011;35079;52.704;13.814;2023-11-19T08:10:30;3.17;;;2.58;;
49241;SDS011;35079;52.704;13.814;2023-11-19T08:12:55;3.13;;;2.70;;
49241;SDS011;35079;52.704;13.814;2023-11-19T08:15:21;3.10;;;2.80;;
49241;SDS011;35079;52.704;13.814;2023-11-19T08:17:46;3.75;;;2.47;;
49241;SDS011;35079;52.704;13.814;2023-11-19T08:20:12;3.10;;;2.83;;
49241;SDS011;35079;52.704;13.814;2023-11-19T08:22:38;2.50;;;2.30;;
49241;SDS011;35079;52.704;13.814;2023-11-19T08:25:04;2.47;;;2.20;;
49241;SDS011;35079;52.704;13.814;2023-11-19T08:27:30;5.03;;;2.60;;
49241;SDS011;35079;52.704;13.814;2023-11-19T08:29:56;5.80;;;2.92;;
49241;SDS011;35079;52.704;13.814;2023-11-19T08:32:22;4.53;;;3.42;;
49241;SDS011;35079;52.704;13.814;2023-11-19T08:34:51;6.97;;;5.45;;
49241;SDS011;35079;52.704;13.814;2023-11-19T08:37:16;3.15;;;2.80;;
49241;SDS011;35079;52.704;13.814;2023-11-19T08:39:47;3.17;;;2.72;;
49241;SDS011;35079;52.704;13.814;2023-11-19T08:42:13;6.20;;;2.90;;
49241;SDS011;35079;52.704;13.814;2023-11-19T08:44:39;3.92;;;2.83;;
49241;SDS011;35079;52.704;13.814;2023-11-19T08:47:08;3.42;;;2.80;;
49241;SDS011;35079;52.704;13.814;2023-11-19T08:49:34;5.38;;;3.30;;
49241;SDS011;35079;52.704;13.814;2023-11-19T08:52:00;3.90;;;3.30;;
49241;SDS011;35079;52.704;13.814;2023-11-19T08:54:25;4.07;;;3.72;;
49241;SDS011;35079;52.704;13.814;2023-11-19T08:56:51;6.03;;;5.10;;
49241;SDS011;35079;52.704;13.814;2023-11-19T08:59:17;5.75;;;3.70;;
49241;SDS011;35079;52.704;13.814;2023-11-19T09:01:43;3.75;;;3.15;;
49241;SDS011;35079;52.704;13.814;2023-11-19T09:04:09;6.30;;;3.85;;
49241;SDS011;35079;52.704;13.814;2023-11-19T09:06:35;3.80;;;3.42;;
49241;SDS011;35079;52.704;13.814;2023-11-19T09:09:01;5.60;;;3.78;;
49241;SDS011;35079;52.704;13.814;2023-11-19T09:11:28;8.30;;;3.33;;
49241;SDS011;35079;52.704;13.814;2023-11-19T09:13:55;3.85;;;2.72;;
49241;SDS011;35079;52.704;13.814;2023-11-19T09:16:20;3.45;;;2.90;;
49241;SDS011;35079;52.704;13.814;2023-11-19T09:18:46;4.78;;;3.50;;
49241;SDS011;35079;52.704;13.814;2023-11-19T09:21:12;5.05;;;3.30;;
49241;SDS011;35079;52.704;13.814;2023-11-19T09:23:38;4.90;;;3.58;;
49241;SDS011;35079;52.704;13.814;2023-11-19T09:26:04;4.35;;;3.83;;
49241;SDS011;35079;52.704;13.814;2023-11-19T09:28:31;8.45;;;4.00;;
49241;SDS011;35079;52.704;13.814;2023-11-19T09:30:57;5.68;;;3.70;;
49241;SDS011;35079;52.704;13.814;2023-11-19T09:33:23;5.88;;;3.63;;
49241;SDS011;35079;52.704;13.814;2023-11-19T09:35:49;6.63;;;4.28;;
49241;SDS011;35079;52.704;13.814;2023-11-19T09:38:15;4.70;;;4.07;;
49241;SDS011;35079;52.704;13.814;2023-11-19T09:40:41;6.82;;;4.13;;
49241;SDS011;35079;52.704;13.814;2023-11-19T09:43:07;7.90;;;4.07;;
49241;SDS011;35079;52.704;13.814;2023-11-19T09:45:39;6.88;;;4.05;;
49241;SDS011;35079;52.704;13.814;2023-11-19T09:48:18;6.22;;;4.22;;
49241;SDS011;35079;52.704;13.814;2023-11-19T09:50:47;5.60;;;3.70;;
49241;SDS011;35079;52.704;13.814;2023-11-19T09:53:14;4.38;;;3.63;;
49241;SDS011;35079;52.704;13.814;2023-11-19T09:55:40;5.90;;;4.07;;
49241;SDS011;35079;52.704;13.814;2023-11-19T09:58:06;5.30;;;3.78;;
49241;SDS011;35079;52.704;13.814;2023-11-19T10:00:33;6.85;;;4.13;;
49241;SDS011;35079;52.704;13.814;2023-11-19T10:02:59;6.15;;;4.28;;
49241;SDS011;35079;52.704;13.814;2023-11-19T10:05:25;6.47;;;4.50;;
49241;SDS011;35079;52.704;13.814;2023-11-19T10:07:51;7.70;;;4.70;;
49241;SDS011;35079;52.704;13.814;2023-11-19T10:10:17;7.45;;;4.82;;
49241;SDS011;35079;52.704;13.814;2023-11-19T10:12:47;6.97;;;4.95;;
49241;SDS011;35079;52.704;13.814;2023-11-19T10:15:22;6.43;;;4.78;;
49241;SDS011;35079;52.704;13.814;2023-11-19T10:17:55;11.13;;;5.05;;
49241;SDS011;35079;52.704;13.814;2023-11-19T10:20:22;7.93;;;5.47;;
49241;SDS011;35079;52.704;13.814;2023-11-19T10:22:47;7.22;;;4.95;;
49241;SDS011;35079;52.704;13.814;2023-11-19T10:25:26;10.95;;;5.63;;
49241;SDS011;35079;52.704;13.814;2023-11-19T10:27:53;11.43;;;6.30;;
49241;SDS011;35079;52.704;13.814;2023-11-19T10:30:26;11.48;;;6.47;;
49241;SDS011;35079;52.704;13.814;2023-11-19T10:33:10;8.88;;;6.18;;
49241;SDS011;35079;52.704;13.814;2023-11-19T10:35:58;10.90;;;6.28;;
49241;SDS011;35079;52.704;13.814;2023-11-19T10:38:25;9.60;;;6.13;;
49241;SDS011;35079;52.704;13.814;2023-11-19T10:40:51;19.35;;;6.88;;
49241;SDS011;35079;52.704;13.814;2023-11-19T10:43:18;16.23;;;6.28;;
49241;SDS011;35079;52.704;13.814;2023-11-19T10:45:44;8.27;;;5.90;;
49241;SDS011;35079;52.704;13.814;2023-11-19T10:48:10;12.52;;;7.00;;
49241;SDS011;35079;52.704;13.814;2023-11-19T10:50:37;9.40;;;6.30;;
49241;SDS011;35079;52.704;13.814;2023-11-19T10:53:05;10.85;;;6.40;;
49241;SDS011;35079;52.704;13.814;2023-11-19T10:55:32;9.27;;;6.43;;
49241;SDS011;35079;52.704;13.814;2023-11-19T10:58:03;10.30;;;6.20;;
49241;SDS011;35079;52.704;13.814;2023-11-19T11:00:54;11.80;;;6.10;;
49241;SDS011;35079;52.704;13.814;2023-11-19T11:03:24;15.15;;;6.55;;
49241;SDS011;35079;52.704;13.814;2023-11-19T11:05:52;12.65;;;6.18;;
49241;SDS011;35079;52.704;13.814;2023-11-19T11:08:19;15.60;;;6.30;;
49241;SDS011;35079;52.704;13.814;2023-11-19T11:10:48;14.82;;;7.10;;
49241;SDS011;35079;52.704;13.814;2023-11-19T11:13:16;12.77;;;6.57;;
49241;SDS011;35079;52.704;13.814;2023-11-19T11:15:43;15.20;;;6.50;;
49241;SDS011;35079;52.704;13.814;2023-11-19T11:18:11;13.45;;;5.78;;
49241;SDS011;35079;52.704;13.814;2023-11-19T11:20:38;12.60;;;5.40;;
49241;SDS011;35079;52.704;13.814;2023-11-19T11:25:46;18.95;;;4.68;;
49241;SDS011;35079;52.704;13.814;2023-11-19T11:28:35;15.82;;;5.22;;
49241;SDS011;35079;52.704;13.814;2023-11-19T11:39:43;14.25;;;4.28;;
49241;SDS011;35079;52.704;13.814;2023-11-19T11:45:05;13.05;;;4.30;;
49241;SDS011;35079;52.704;13.814;2023-11-19T11:57:57;10.63;;;4.55;;
49241;SDS011;35079;52.704;13.814;2023-11-19T12:02:56;14.73;;;4.93;;
49241;SDS011;35079;52.704;13.814;2023-11-19T12:05:23;22.70;;;4.47;;
49241;SDS011;35079;52.704;13.814;2023-11-19T12:07:56;14.90;;;4.00;;
49241;SDS011;35079;52.704;13.814;2023-11-19T12:10:25;22.20;;;4.82;;
49241;SDS011;35079;52.704;13.814;2023-11-19T12:12:57;17.60;;;3.90;;
49241;SDS011;35079;52.704;13.814;2023-11-19T12:15:24;17.60;;;4.03;;
49241;SDS011;35079;52.704;13.814;2023-11-19T12:17:51;19.95;;;4.53;;
49241;SDS011;35079;52.704;13.814;2023-11-19T12:20:18;16.85;;;3.80;;
49241;SDS011;35079;52.704;13.814;2023-11-19T12:22:45;19.73;;;3.83;;
49241;SDS011;35079;52.704;13.814;2023-11-19T12:25:14;22.55;;;3.75;;
49241;SDS011;35079;52.704;13.814;2023-11-19T12:27:48;15.05;;;3.70;;
49241;SDS011;35079;52.704;13.814;2023-11-19T12:30:22;20.58;;;4.10;;
49241;SDS011;35079;52.704;13.814;2023-11-19T12:32:49;14.77;;;3.58;;
49241;SDS011;35079;52.704;13.814;2023-11-19T12:35:16;20.67;;;3.53;;
49241;SDS011;35079;52.704;13.814;2023-11-19T12:37:42;29.10;;;4.03;;
49241;SDS011;35079;52.704;13.814;2023-11-19T12:40:13;18.38;;;3.83;;
49241;SDS011;35079;52.704;13.814;2023-11-19T12:42:39;15.23;;;4.18;;
49241;SDS011;35079;52.704;13.814;2023-11-19T12:45:05;19.63;;;3.97;;
49241;SDS011;35079;52.704;13.814;2023-11-19T12:47:31;20.13;;;4.20;;
49241;SDS011;35079;52.704;13.814;2023-11-19T12:49:57;25.38;;;4.72;;
49241;SDS011;35079;52.704;13.814;2023-11-19T12:52:22;30.70;;;4.85;;
49241;SDS011;35079;52.704;13.814;2023-11-19T12:54:48;26.15;;;4.38;;
49241;SDS011;35079;52.704;13.814;2023-11-19T12:57:14;23.83;;;4.80;;
49241;SDS011;35079;52.704;13.814;2023-11-19T12:59:40;26.95;;;4.70;;
49241;SDS011;35079;52.704;13.814;2023-11-19T13:02:08;21.05;;;3.70;;
49241;SDS011;35079;52.704;13.814;2023-11-19T13:04:34;23.73;;;4.10;;
49241;SDS011;35079;52.704;13.814;2023-11-19T13:07:00;23.15;;;4.00;;
49241;SDS011;35079;52.704;13.814;2023-11-19T13:09:26;26.48;;;4.53;;
49241;SDS011;35079;52.704;13.814;2023-11-19T13:11:53;37.60;;;5.07;;
49241;SDS011;35079;52.704;13.814;2023-11-19T13:14:21;31.45;;;4.38;;
49241;SDS011;35079;52.704;13.814;2023-11-19T13:16:47;26.92;;;4.43;;
49241;SDS011;35079;52.704;13.814;2023-11-19T13:19:13;27.10;;;4.72;;
49241;SDS011;35079;52.704;13.814;2023-11-19T13:21:44;19.83;;;4.07;;
49241;SDS011;35079;52.704;13.814;2023-11-19T13:24:12;29.75;;;4.45;;
49241;SDS011;35079;52.704;13.814;2023-11-19T13:26:38;29.35;;;3.90;;
49241;SDS011;35079;52.704;13.814;2023-11-19T13:29:04;27.80;;;4.30;;
49241;SDS011;35079;52.704;13.814;2023-11-19T13:31:30;25.67;;;4.55;;
49241;SDS011;35079;52.704;13.814;2023-11-19T13:33:56;20.33;;;4.15;;
49241;SDS011;35079;52.704;13.814;2023-11-19T13:36:23;25.73;;;4.43;;
49241;SDS011;35079;52.704;13.814;2023-11-19T13:38:49;25.00;;;4.15;;
49241;SDS011;35079;52.704;13.814;2023-11-19T13:41:15;20.42;;;3.47;;
49241;SDS011;35079;52.704;13.814;2023-11-19T13:43:40;33.95;;;5.85;;
49241;SDS011;35079;52.704;13.814;2023-11-19T13:46:06;21.30;;;4.65;;
49241;SDS011;35079;52.704;13.814;2023-11-19T13:48:34;23.77;;;4.20;;
49241;SDS011;35079;52.704;13.814;2023-11-19T13:51:00;24.75;;;4.57;;
49241;SDS011;35079;52.704;13.814;2023-11-19T13:53:26;43.67;;;5.28;;
49241;SDS011;35079;52.704;13.814;2023-11-19T13:55:51;31.65;;;5.05;;
49241;SDS011;35079;52.704;13.814;2023-11-19T13:58:18;33.83;;;4.72;;
49241;SDS011;35079;52.704;13.814;2023-11-19T14:00:43;30.30;;;4.50;;
49241;SDS011;35079;52.704;13.814;2023-11-19T14:03:09;25.75;;;4.22;;
49241;SDS011;35079;52.704;13.814;2023-11-19T14:05:38;20.60;;;4.15;;
49241;SDS011;35079;52.704;13.814;2023-11-19T14:08:06;24.02;;;4.40;;
49241;SDS011;35079;52.704;13.814;2023-11-19T14:10:38;20.65;;;4.40;;
49241;SDS011;35079;52.704;13.814;2023-11-19T14:13:05;22.98;;;4.70;;
49241;SDS011;35079;52.704;13.814;2023-11-19T14:15:31;32.72;;;4.38;;
49241;SDS011;35079;52.704;13.814;2023-11-19T14:17:57;23.92;;;5.22;;
49241;SDS011;35079;52.704;13.814;2023-11-19T14:20:22;30.75;;;4.55;;
49241;SDS011;35079;52.704;13.814;2023-11-19T14:22:48;26.85;;;4.95;;
49241;SDS011;35079;52.704;13.814;2023-11-19T14:25:15;26.45;;;4.60;;
49241;SDS011;35079;52.704;13.814;2023-11-19T14:27:41;32.08;;;4.35;;
49241;SDS011;35079;52.704;13.814;2023-11-19T14:30:08;33.20;;;4.32;;
49241;SDS011;35079;52.704;13.814;2023-11-19T14:32:39;29.05;;;4.88;;
49241;SDS011;35079;52.704;13.814;2023-11-19T14:35:08;26.88;;;4.85;;
49241;SDS011;35079;52.704;13.814;2023-11-19T14:37:34;36.05;;;5.47;;
49241;SDS011;35079;52.704;13.814;2023-11-19T14:40:00;23.08;;;4.35;;
49241;SDS011;35079;52.704;13.814;2023-11-19T14:42:30;30.42;;;4.72;;
49241;SDS011;35079;52.704;13.814;2023-11-19T14:44:56;24.35;;;4.45;;
49241;SDS011;35079;52.704;13.814;2023-11-19T14:47:22;31.60;;;4.38;;
49241;SDS011;35079;52.704;13.814;2023-11-19T14:49:48;32.75;;;4.43;;
49241;SDS011;35079;52.704;13.814;2023-11-19T14:52:14;39.83;;;4.25;;
49241;SDS011;35079;52.704;13.814;2023-11-19T14:54:40;37.95;;;4.10;;
49241;SDS011;35079;52.704;13.814;2023-11-19T14:57:05;30.30;;;4.75;;